This is the latest recevied weather packets stored in our database for station/object N4MRV-1. If no packets are shown the sender has not sent any weather packets the latest 10 day(s).
| Time | Temp. | Humidity | Pressure | Rain* | Wind** | Luminosity | Snow |
|---|---|---|---|---|---|---|---|
| 1778072417 | 18.33° C | 80% | 1011.9 hPa | 0 mm | - | 79 W/m² | - |
| 1778070617 | 18.33° C | 75% | 1012 hPa | 0 mm | - | 46 W/m² | - |
| 1778069716 | 18.33° C | 74% | 1011.9 hPa | 0 mm | - | 73 W/m² | - |
| 1778068816 | 17.78° C | 75% | 1011.8 hPa | 0 mm | - | 78 W/m² | - |
| 1778063416 | 17.22° C | 74% | 1012 hPa | 0 mm | - | 7 W/m² | - |
| 1778060716 | 17.22° C | 75% | 1011.7 hPa | 0 mm | - | 0 W/m² | - |
| 1778052616 | 18.33° C | 72% | 1012.2 hPa | 0 mm | - | 0 W/m² | - |
| 1778049936 | 18.89° C | 72% | 1012.5 hPa | 0 mm | - | 0 W/m² | - |
| 1778049016 | 18.89° C | 71% | 1012.5 hPa | 0 mm | - | 0 W/m² | - |
| 1778047236 | 19.44° C | 69% | 1012.6 hPa | 0 mm | - | 0 W/m² | - |
| 1778043616 | 20° C | 65% | 1013 hPa | 0 mm | - | 0 W/m² | - |
| 1778040056 | 21.11° C | 60% | 1013.2 hPa | 0 mm | - | 0 W/m² | - |
| 1778035516 | 21.67° C | 56% | 1012.9 hPa | 0 mm | - | 0 W/m² | - |
| 1778030136 | 22.78° C | 52% | 1012.4 hPa | 0 mm | - | 0 W/m² | - |
| 1778029216 | 22.78° C | 51% | 1012.4 hPa | 0 mm | - | 0 W/m² | - |
| 1778024716 | 24.44° C | 44% | 1011.7 hPa | 0 mm | - | 17 W/m² | - |
| 1778021116 | 26.67° C | 37% | 1011.7 hPa | 0 mm | - | 101 W/m² | - |
| 1778015715 | 27.22° C | 34% | 1011.4 hPa | 0 mm | - | 157 W/m² | - |
| 1778010335 | 28.33° C | 30% | 1011.8 hPa | 0 mm | - | 407 W/m² | - |
| 1777997717 | 27.22° C | 44% | 1014.3 hPa | 0 mm | - | 925 W/m² | - |
| 1777995937 | 25.56° C | 46% | 1014.8 hPa | 0 mm | - | 886 W/m² | - |
| 1777992317 | 21.67° C | 58% | 1014.8 hPa | 0 mm | - | 739 W/m² | - |
| 1777987817 | 18.33° C | 65% | 1014.8 hPa | 0 mm | - | 70 W/m² | - |
| 1777985137 | 16.67° C | 70% | 1015 hPa | 0 mm | - | 57 W/m² | - |
| 1777977936 | 15° C | 73% | 1014 hPa | 0 mm | - | 14 W/m² | - |
* Rain latest hour (hover to see other rain measurements)
** Current wind speed in m/s (hover to see current wind gust speed)